Have a Safe July 4th! 

Flight Track Log - Related Links

Times and Time Zones

All times are in EDT time to prevent confusion due to time zone crossing. See the ASQ6151 flight status page for this flight to view local times or setup timezone preferences in your user account.

Time Position Orientation Groundspeed Altitude Reporting Facility
EDT Latitude Longitude Course Direction KTS MPH feet Rate Location/Type
Fri 05:55:51 PM 32.2106 -81.1272 North 260 299 4,200  Level Jacksonville Center
Fri 05:56:51 PM 32.2858 -81.1356 355° North 277 319 6,300 1,950 Climbing Jacksonville Center
Fri 05:57:51 PM 32.3569 -81.1392 358° North 277 319 8,100 1,950 Climbing Jacksonville Center
Fri 05:58:51 PM 32.4447 -81.1447 357° North 282 325 10,200 1,650 Climbing Jacksonville Center
Fri 05:59:51 PM 32.5242 -81.1506 356° North 300 345 11,400 1,250 Climbing Jacksonville Center
Fri 06:00:00 PM 32.6578 -81.1500 North  Level FlightAware Approximate
Fri 06:00:51 PM 32.6244 -81.1586 356° North 315 362 12,700  Level Jacksonville Center
Fri 06:01:00 PM 32.7489 -81.1439 North  Level FlightAware Approximate
Fri 06:01:51 PM 32.7225 -81.1517 North 335 386 13,800  Level Jacksonville Center
Fri 06:02:51 PM 32.8225 -81.1450 North 346 398 15,000 1,150 Climbing Jacksonville Center
Fri 06:03:51 PM 32.9225 -81.1356 North 358 412 16,100 1,050 Climbing Jacksonville Center
Fri 06:04:51 PM 33.0247 -81.1286 North 363 418 17,100 850 Climbing Jacksonville Center
Fri 06:05:51 PM 33.1314 -81.1339 358° North 368 423 17,800 800 Climbing Jacksonville Center
Fri 06:06:51 PM 33.2339 -81.1667 345° North 368 423 18,700 950 Climbing Jacksonville Center
Fri 06:07:51 PM 33.3389 -81.1969 346° North 373 429 19,700 1,050 Climbing Jacksonville Center
Fri 06:08:51 PM 33.4436 -81.2272 346° North 378 435 20,800 1,100 Climbing Jacksonville Center
Fri 06:09:51 PM 33.5483 -81.2603 345° North 378 435 21,900 1,000 Climbing Jacksonville Center
Fri 06:10:51 PM 33.6572 -81.2906 347° North 383 441 22,800 850 Climbing Jacksonville Center
Fri 06:11:51 PM 33.7556 -81.3164 348° North 389 448 23,600 876 Climbing Jacksonville Center
Fri 06:13:56 PM 33.9783 -81.3833 346° North 395 455 25,500 1,038 Climbing Atlanta Center
Fri 06:14:56 PM 34.0961 -81.4175 346° North 395 455 26,800 1,150 Climbing Atlanta Center
Fri 06:15:56 PM 34.2033 -81.4517 345° North 395 455 27,800 1,150 Climbing Atlanta Center
Fri 06:16:56 PM 34.3081 -81.4786 348° North 388 447 29,100 1,150 Climbing Atlanta Center
Fri 06:17:56 PM 34.4131 -81.5133 345° North 388 447 30,100 1,000 Climbing Atlanta Center
Fri 06:18:56 PM 34.5139 -81.5406 347° North 377 434 31,100 1,100 Climbing Atlanta Center
Fri 06:19:56 PM 34.6167 -81.5703 347° North 377 434 32,300 1,200 Climbing Atlanta Center
Fri 06:20:56 PM 34.7175 -81.6053 344° North 377 434 33,500 1,150 Climbing Atlanta Center
Fri 06:21:56 PM 34.8164 -81.6378 345° North 368 423 34,600 1,000 Climbing Atlanta Center
Fri 06:22:56 PM 34.9044 -81.6631 347° North 361 415 35,500 700 Climbing Atlanta Center
Fri 06:23:56 PM 34.9989 -81.6933 345° North 361 415 36,000 250 Climbing Atlanta Center
Fri 06:24:56 PM 35.0997 -81.7211 347° North 361 415 36,000  Level Atlanta Center
Fri 06:25:56 PM 35.2047 -81.7536 346° North 373 429 36,000  Level Atlanta Center
Fri 06:26:56 PM 35.3242 -81.7911 346° North 387 445 36,000  Level Atlanta Center
Fri 06:27:56 PM 35.4356 -81.8264 346° North 401 461 36,000  Level Atlanta Center
Fri 06:28:56 PM 35.5508 -81.8614 346° North 414 476 36,000  Level Atlanta Center
Fri 06:29:56 PM 35.6661 -81.8942 347° North 419 482 36,000  Level Atlanta Center
Fri 06:30:56 PM 35.7794 -81.9269 347° North 414 476 36,000  Level Atlanta Center
Fri 06:31:56 PM 35.8947 -81.9625 346° North 414 476 36,000  Level Atlanta Center
Fri 06:32:56 PM 36.0100 -82.0006 345° North 414 476 36,000  Level Atlanta Center
Fri 06:33:56 PM 36.1128 -82.0314 346° North 419 482 36,000  Level Atlanta Center
Fri 06:34:56 PM 36.2303 -82.0669 346° North 419 482 36,000  Level Atlanta Center
Fri 06:35:56 PM 36.3433 -82.1003 347° North 419 482 36,000  Level Atlanta Center
Fri 06:36:56 PM 36.4525 -82.1467 341° North 419 482 36,000  Level Atlanta Center
Fri 06:37:56 PM 36.5433 -82.2325 323° Northwest 407 468 36,000  Level Atlanta Center
Fri 06:38:56 PM 36.6364 -82.3183 324° Northwest 412 474 36,000  Level Atlanta Center
Fri 06:41:21 PM 36.8703 -82.5417 323° Northwest 425 489 36,000  Level Indianapolis Center
Fri 06:42:23 PM 36.9656 -82.6325 323° Northwest 432 497 36,000  Level Indianapolis Center
Fri 06:43:25 PM 37.0503 -82.7153 322° Northwest 390 449 36,000  Level Indianapolis Center
Fri 06:44:27 PM 37.1256 -82.7886 322° Northwest 351 404 36,000  Level Indianapolis Center
Fri 06:45:28 PM 37.2111 -82.8736 322° Northwest 340 391 36,000  Level Indianapolis Center
Fri 06:46:30 PM 37.2875 -82.9478 322° Northwest 344 396 36,000  Level Indianapolis Center
Fri 06:47:32 PM 37.3639 -83.0217 322° Northwest 347 399 36,000  Level Indianapolis Center
Fri 06:48:34 PM 37.4581 -83.0581 343° North 359 413 36,000  Level Indianapolis Center
Fri 06:49:36 PM 37.5539 -83.0950 343° North 359 413 36,000  Level Indianapolis Center
Fri 06:50:38 PM 37.6508 -83.1297 344° North 361 415 36,000  Level Indianapolis Center
Fri 06:51:40 PM 37.7639 -83.1717 344° North 363 418 36,000  Level Indianapolis Center
Fri 06:52:42 PM 37.8600 -83.2072 344° North 360 414 36,000  Level Indianapolis Center
Fri 06:53:44 PM 37.9603 -83.2439 344° North 371 427 36,000  Level Indianapolis Center
Fri 06:54:46 PM 38.0533 -83.2953 337° Northwest 368 423 36,000  Level Indianapolis Center
Fri 06:55:48 PM 38.1469 -83.3544 334° Northwest 377 434 36,000  Level Indianapolis Center
Fri 06:56:50 PM 38.2597 -83.4247 334° Northwest 385 443 36,000  Level Indianapolis Center
Fri 06:57:52 PM 38.3619 -83.4883 334° Northwest 401 461 36,000  Level Indianapolis Center
Fri 06:58:54 PM 38.4678 -83.5531 334° Northwest 415 478 36,000  Level Indianapolis Center
Fri 06:59:56 PM 38.5756 -83.6231 333° Northwest 430 495 36,000  Level Indianapolis Center
Fri 07:00:58 PM 38.6717 -83.7239 321° Northwest 434 499 36,000  Level Indianapolis Center
Fri 07:01:59 PM 38.7669 -83.8225 321° Northwest 434 499 36,000  Level Indianapolis Center
Fri 07:03:01 PM 38.8597 -83.9200 321° Northwest 429 494 36,000  Level Indianapolis Center
Fri 07:04:03 PM 38.9553 -84.0194 321° Northwest 435 501 36,000 -435 Level Indianapolis Center
Fri 07:05:05 PM 39.0508 -84.1211 320° Northwest 438 504 35,100 -1,258 Descending Indianapolis Center
Fri 07:06:07 PM 39.1642 -84.2400 321° Northwest 443 510 33,400 -1,065 Descending Indianapolis Center
Fri 07:07:09 PM 39.2589 -84.3394 321° Northwest 437 503 32,900 -339 Descending Indianapolis Center
Fri 07:08:11 PM 39.3525 -84.4408 320° Northwest 433 498 32,700 -677 Descending Indianapolis Center
Fri 07:09:13 PM 39.4164 -84.5736 302° West 430 495 31,500 -1,512 Descending Indianapolis Center
Fri 07:10:14 PM 39.4753 -84.7153 298° West 441 507 29,600 -1,659 Descending Indianapolis Center
Fri 07:11:16 PM 39.5072 -84.8697 285° West 440 506 28,100 -774 Descending Indianapolis Center
Fri 07:12:18 PM 39.5433 -85.0308 286° West 434 499 28,000 -48 Descending Indianapolis Center
Fri 07:13:20 PM 39.5753 -85.1819 285° West 436 502 28,000  Level Indianapolis Center
Fri 07:14:22 PM 39.6086 -85.3344 286° West 441 507 28,000  Level Indianapolis Center
Fri 07:15:23 PM 39.6439 -85.4875 287° West 443 510 28,000  Level Indianapolis Center
Fri 07:16:25 PM 39.6778 -85.6397 286° West 441 507 28,000 -484 Level Indianapolis Center
Fri 07:17:27 PM 39.7700 -85.7439 319° Northwest 457 526 27,000 -968 Descending Indianapolis Center
Fri 07:18:29 PM 39.9211 -85.7394 North 459 528 26,000 -976 Descending Indianapolis Center
Fri 07:19:30 PM 40.0439 -85.7269 North 449 517 25,000 -927 Descending Indianapolis Center
Fri 07:20:32 PM 40.1617 -85.7144 North 430 495 24,100 -484 Descending Indianapolis Center
Fri 07:21:34 PM 40.2664 -85.7039 North 380 437 24,000 -48 Descending Indianapolis Center
Fri 07:22:36 PM 40.3681 -85.7142 356° North 376 433 24,000 -98 Level Indianapolis Center
Fri 07:23:37 PM 40.4847 -85.7625 343° North 369 425 23,800 -488 Descending Indianapolis Center
Fri 07:24:39 PM 40.5811 -85.8056 341° North 369 425 23,000 -387 Descending Indianapolis Center
Fri 07:25:41 PM 40.6800 -85.8456 343° North 372 428 23,000  Level Indianapolis Center
Fri 07:26:42 PM 40.7792 -85.8892 342° North 376 433 23,000  Level Indianapolis Center
Fri 07:26:57 PM 40.8092 -85.9006 344° North 376 433 23,000  Level Chicago Center
Fri 07:27:59 PM 40.9050 -85.9428 342° North 364 419 23,000 -145 Level Chicago Center
Fri 07:29:01 PM 40.9975 -85.9814 343° North 353 406 22,700 -1,210 Descending Chicago Center
Fri 07:30:03 PM 41.0878 -86.0219 341° North 345 397 20,500 -2,274 Descending Chicago Center
Fri 07:31:05 PM 41.1736 -86.0589 342° North 332 382 18,000 -2,419 Descending Chicago Center
Fri 07:32:07 PM 41.2561 -86.0950 342° North 316 364 15,500 -2,468 Descending Chicago Center
Fri 07:33:09 PM 41.3525 -86.1364 342° North 306 352 12,900 -1,776 Descending Chicago Center
Fri 07:34:12 PM 41.4389 -86.1742 342° North 316 364 11,800 -912 Descending Chicago Center
Fri 07:35:14 PM 41.5378 -86.2181 342° North 363 418 11,000 -387 Descending Chicago Center
Fri 07:36:16 PM 41.6300 -86.2717 337° Northwest 368 423 11,000  Level Chicago Center
Fri 07:37:18 PM 41.7031 -86.3625 317° Northwest 359 413 11,000 -242 Level Chicago Center
Fri 07:38:20 PM 41.7769 -86.4553 317° Northwest 365 420 10,500 -484 Descending Chicago Center
Fri 07:39:22 PM 41.8614 -86.5639 316° Northwest 354 407 10,000 -242 Descending Chicago Center
Fri 07:40:24 PM 41.9331 -86.6553 317° Northwest 355 409 10,000  Level Chicago Center
Fri 07:41:26 PM 42.0089 -86.7508 317° Northwest 345 397 10,000 -532 Level Chicago Center
Fri 07:42:28 PM 42.0664 -86.8261 316° Northwest 298 343 8,900 -968 Descending Chicago Center
Fri 07:43:30 PM 42.1233 -86.8994 316° Northwest 287 330 8,000 -435 Descending Chicago Center
Fri 07:44:32 PM 42.1567 -86.9897 297° West 280 322 8,000  Level Chicago Center
Fri 07:45:35 PM 42.1639 -87.0892 276° West 270 311 8,000  Level Chicago Center
Fri 07:46:37 PM 42.1728 -87.2147 275° West 282 325 8,000 -484 Level Chicago Center
Fri 07:47:39 PM 42.1789 -87.3183 275° West 280 322 7,000 -484 Descending Chicago Center
Fri 07:48:41 PM 42.1861 -87.4178 276° West 273 314 7,000  Level Chicago Center
Fri 07:49:43 PM 42.1853 -87.5208 269° West 276 318 7,000  Level Chicago Center
Fri 07:50:45 PM 42.1844 -87.6242 269° West 278 320 7,000  Level Chicago Center
Fri 07:51:47 PM 42.1369 -87.7214 237° Southwest 268 308 7,000  Level Chicago Center
Fri 07:52:25 PM 42.1000 -87.7667 222° Southwest 267 307 7,000  Level Chicago TRACON
Fri 07:53:20 PM 42.0500 -87.8000 206° Southwest 254 292 7,000  Level Chicago TRACON
Fri 07:54:26 PM 41.9833 -87.8167 191° South 235 270 7,000  Level Chicago TRACON
Fri 07:55:26 PM 41.9167 -87.8500 200° South 233 268 7,000 -524 Level Chicago TRACON
Fri 07:56:32 PM 41.8500 -87.8833 200° South 224 258 5,900 -1,174 Descending Chicago TRACON
Fri 07:56:58 PM 41.8339 -87.9042 224° Southwest 222 255 5,200 -1,636 Descending Chicago Center
Fri 07:58:00 PM 41.8478 -87.9778 284° West 230 265 3,500 -1,596 Descending Chicago Center
Fri 07:58:32 PM 41.8833 -87.9833 353° North 232 267 2,700 -1,174 Descending Chicago TRACON
Fri 07:59:32 PM 41.9167 -87.9500 37° Northeast 136 157 1,700 -850 Descending Chicago TRACON
Fri 08:00:32 PM 41.9500 -87.9167 37° Northeast 130 150 1,000 -700 Descending Chicago TRACON

Login

Don't have an account? Register now (free) for customized features, flight alerts, and more!